createdAt,value
2023-08-02T00:04:11.320Z,5.00
2023-08-02T00:09:14.957Z,5.80
2023-08-02T00:14:17.998Z,4.80
2023-08-02T00:19:20.901Z,5.80
2023-08-02T00:24:23.749Z,5.70
2023-08-02T00:29:26.820Z,6.10
2023-08-02T00:34:29.683Z,6.30
2023-08-02T00:39:32.535Z,7.00
2023-08-02T00:44:35.409Z,5.10
2023-08-02T00:49:38.410Z,5.60
2023-08-02T00:54:43.196Z,5.10
2023-08-02T00:59:46.140Z,5.20
2023-08-02T01:04:49.511Z,4.20
2023-08-02T01:10:13.935Z,5.30
2023-08-02T01:15:18.126Z,4.70
2023-08-02T01:20:20.985Z,5.20
2023-08-02T01:25:26.632Z,5.20
2023-08-02T01:30:34.952Z,5.00
2023-08-02T01:35:38.559Z,5.20
2023-08-02T01:40:41.512Z,4.90
2023-08-02T01:45:44.433Z,5.00
2023-08-02T01:50:47.713Z,5.50
2023-08-02T01:55:50.596Z,4.00
2023-08-02T02:00:53.543Z,5.80
2023-08-02T02:05:56.544Z,5.50
2023-08-02T02:10:59.791Z,4.50
2023-08-02T02:16:02.775Z,4.20
2023-08-02T02:21:06.044Z,3.30
2023-08-02T02:26:09.672Z,3.40
2023-08-02T02:31:12.507Z,3.70
2023-08-02T02:41:18.285Z,3.60
2023-08-02T02:51:24.006Z,4.10
2023-08-02T03:01:29.921Z,4.60
2023-08-02T03:06:32.798Z,3.70
2023-08-02T03:12:12.109Z,4.20
2023-08-02T03:17:24.080Z,4.00
2023-08-02T03:27:30.114Z,4.60
2023-08-02T03:37:35.768Z,4.70
2023-08-02T03:52:44.646Z,5.10
2023-08-02T04:02:50.308Z,4.50
2023-08-02T04:07:53.669Z,4.60
2023-08-02T04:17:59.376Z,4.30
2023-08-02T04:23:04.601Z,5.40
2023-08-02T04:28:08.090Z,5.30
2023-08-02T04:33:10.963Z,5.40
2023-08-02T04:38:13.989Z,5.00
2023-08-02T04:48:19.619Z,4.70
2023-08-02T04:53:22.536Z,4.00
2023-08-02T04:58:25.375Z,4.30
2023-08-02T05:03:28.224Z,4.80
2023-08-02T05:08:33.448Z,4.70
2023-08-02T05:13:36.456Z,5.10
2023-08-02T05:18:39.410Z,5.80
2023-08-02T05:23:43.384Z,4.60
2023-08-02T05:28:46.245Z,4.30
2023-08-02T05:33:49.566Z,4.90
2023-08-02T05:38:52.697Z,4.80
2023-08-02T05:43:55.503Z,4.70
2023-08-02T05:48:58.446Z,4.50
2023-08-02T05:54:01.351Z,4.10
2023-08-02T05:59:04.288Z,5.10
2023-08-02T06:04:07.378Z,4.30
2023-08-02T06:09:10.711Z,4.20
2023-08-02T06:14:14.750Z,4.20
2023-08-02T06:19:17.726Z,3.60
2023-08-02T06:24:22.873Z,4.10
2023-08-02T06:29:25.873Z,4.30
2023-08-02T06:34:29.057Z,4.10
2023-08-02T06:39:33.705Z,3.80
2023-08-02T06:44:36.943Z,4.10
2023-08-02T06:49:41.200Z,4.90
2023-08-02T06:54:44.352Z,4.20
2023-08-02T06:59:47.490Z,4.50
2023-08-02T07:04:50.536Z,3.80
2023-08-02T07:09:56.512Z,3.90
2023-08-02T07:14:59.392Z,4.30
2023-08-02T07:20:03.071Z,3.50
2023-08-02T07:25:06.889Z,3.10
2023-08-02T07:30:10.297Z,3.30
2023-08-02T07:35:13.311Z,3.20
2023-08-02T07:40:16.224Z,3.30
2023-08-02T07:45:19.351Z,2.80
2023-08-02T07:50:22.565Z,3.00
2023-08-02T07:55:25.578Z,2.60
2023-08-02T08:00:56.710Z,2.80
2023-08-02T08:06:16.783Z,2.60
2023-08-02T08:11:21.690Z,2.60
2023-08-02T08:16:26.242Z,2.90
2023-08-02T08:21:29.152Z,2.80
2023-08-02T08:26:32.045Z,3.00
2023-08-02T08:31:35.138Z,2.60
2023-08-02T08:36:38.188Z,2.50
2023-08-02T08:41:41.373Z,2.70
2023-08-02T08:46:45.996Z,2.20
2023-08-02T08:51:53.889Z,2.90
2023-08-02T08:56:57.961Z,4.50
2023-08-02T09:02:01.197Z,3.70
2023-08-02T09:07:04.447Z,2.60
2023-08-02T09:12:10.287Z,3.20
2023-08-02T09:17:16.506Z,3.20
2023-08-02T09:22:19.743Z,3.30
2023-08-02T09:27:22.630Z,3.50
2023-08-02T09:32:27.177Z,2.90
2023-08-02T09:37:37.135Z,2.90
2023-08-02T09:42:40.169Z,2.40
2023-08-02T09:47:52.816Z,2.50
2023-08-02T09:52:56.646Z,3.10
2023-08-02T09:58:01.365Z,2.40
2023-08-02T10:03:15.637Z,2.70
2023-08-02T10:08:23.928Z,6.90
2023-08-02T10:13:31.522Z,5.50
2023-08-02T10:18:35.653Z,3.00
2023-08-02T10:23:39.320Z,2.40
2023-08-02T10:28:42.731Z,2.50
2023-08-02T10:33:45.738Z,2.70
2023-08-02T10:38:50.591Z,2.40
2023-08-02T10:43:55.150Z,2.90
2023-08-02T10:49:18.835Z,2.70
2023-08-02T10:54:24.381Z,2.70
2023-08-02T10:59:30.465Z,2.50
2023-08-02T11:04:37.519Z,2.70
2023-08-02T11:09:42.464Z,2.50
2023-08-02T11:14:51.395Z,2.60
2023-08-02T11:25:01.484Z,2.60
2023-08-02T11:30:08.636Z,2.60
2023-08-02T11:35:19.430Z,2.40
2023-08-02T11:40:26.656Z,2.70
2023-08-02T11:45:31.581Z,2.70
2023-08-02T11:50:36.402Z,2.70
2023-08-02T11:55:41.134Z,3.20
2023-08-02T12:00:45.466Z,3.30
2023-08-02T12:05:48.473Z,3.20
2023-08-02T12:10:52.529Z,2.50
2023-08-02T12:16:07.477Z,2.70
2023-08-02T12:21:16.844Z,2.30
2023-08-02T12:26:34.477Z,2.70
2023-08-02T12:31:43.310Z,2.60
2023-08-02T12:36:49.129Z,2.90
2023-08-02T12:41:52.249Z,3.00
2023-08-02T12:46:55.170Z,2.90
2023-08-02T12:51:58.059Z,2.90
2023-08-02T12:57:00.992Z,2.60
2023-08-02T13:02:04.313Z,2.80
2023-08-02T13:07:07.524Z,2.50
2023-08-02T13:12:13.992Z,2.60
2023-08-02T13:17:21.056Z,2.70
2023-08-02T13:22:25.301Z,2.80
2023-08-02T13:27:34.284Z,2.30
2023-08-02T13:32:39.574Z,2.50
2023-08-02T13:37:43.234Z,2.70
2023-08-02T13:42:46.655Z,2.40
2023-08-02T13:47:49.738Z,2.60
2023-08-02T13:52:52.773Z,2.40
2023-08-02T13:57:55.912Z,2.50
2023-08-02T14:02:59.025Z,2.40
2023-08-02T14:08:02.045Z,2.40
2023-08-02T14:13:04.897Z,2.40
2023-08-02T14:18:07.883Z,2.80
2023-08-02T14:23:11.182Z,2.70
2023-08-02T14:28:14.147Z,3.10
2023-08-02T14:33:18.013Z,3.00
2023-08-02T14:38:21.078Z,3.30
2023-08-02T14:43:24.017Z,3.10
2023-08-02T14:48:28.155Z,3.40
2023-08-02T14:53:31.151Z,2.90
2023-08-02T14:58:34.215Z,2.40
2023-08-02T15:03:37.105Z,2.60
2023-08-02T15:08:40.060Z,2.90
2023-08-02T15:13:43.204Z,2.80
2023-08-02T15:18:46.890Z,3.00
2023-08-02T15:23:51.382Z,3.40
2023-08-02T15:28:54.959Z,2.60
2023-08-02T15:33:57.953Z,3.20
2023-08-02T15:39:01.138Z,3.00
2023-08-02T15:44:04.708Z,3.30
2023-08-02T15:49:07.749Z,3.00
2023-08-02T15:54:10.806Z,2.50
2023-08-02T15:59:16.635Z,2.90
2023-08-02T16:04:19.747Z,2.90
2023-08-02T16:09:22.869Z,2.80
2023-08-02T16:14:26.740Z,2.40
2023-08-02T16:19:32.764Z,2.60
2023-08-02T16:24:37.212Z,2.70
2023-08-02T16:29:40.057Z,2.80
2023-08-02T16:34:43.389Z,2.60
2023-08-02T16:39:46.295Z,2.80
2023-08-02T16:44:49.193Z,2.60
2023-08-02T16:49:52.091Z,2.90
2023-08-02T16:54:55.062Z,2.50
2023-08-02T16:59:58.008Z,3.10
2023-08-02T17:05:00.841Z,3.10
2023-08-02T17:10:04.649Z,2.90
2023-08-02T17:15:07.983Z,2.50
2023-08-02T17:20:12.082Z,2.80
2023-08-02T17:25:15.731Z,2.60
2023-08-02T17:30:18.950Z,2.90
2023-08-02T17:35:21.854Z,2.40
2023-08-02T17:40:24.920Z,3.00
2023-08-02T17:45:28.069Z,2.70
2023-08-02T17:50:31.126Z,2.70
2023-08-02T17:55:34.213Z,2.50
2023-08-02T18:00:40.004Z,2.80
2023-08-02T18:05:42.888Z,2.60
2023-08-02T18:10:45.854Z,2.50
2023-08-02T18:15:48.790Z,2.50
2023-08-02T18:20:51.655Z,2.80
2023-08-02T18:25:55.026Z,2.70
2023-08-02T18:31:05.762Z,3.00
2023-08-02T18:36:14.602Z,2.70
2023-08-02T18:41:20.084Z,2.90
2023-08-02T18:46:23.001Z,3.00
2023-08-02T18:51:25.936Z,3.00
2023-08-02T18:56:28.798Z,3.40
2023-08-02T19:01:31.794Z,3.20
2023-08-02T19:06:35.025Z,3.20
2023-08-02T19:11:37.986Z,3.30
2023-08-02T19:16:41.341Z,4.30
2023-08-02T19:21:50.849Z,4.30
2023-08-02T19:26:53.981Z,4.30
2023-08-02T19:32:00.345Z,4.00
2023-08-02T19:37:06.506Z,4.10
2023-08-02T19:42:15.154Z,3.70
2023-08-02T19:47:25.020Z,3.70
2023-08-02T19:52:32.165Z,3.70
2023-08-02T19:57:44.876Z,3.80
2023-08-02T20:02:48.495Z,3.70
2023-08-02T20:07:51.668Z,3.60
2023-08-02T20:12:57.138Z,4.10
2023-08-02T20:18:00.713Z,3.70
2023-08-02T20:23:06.934Z,4.00
2023-08-02T20:28:13.286Z,3.90
2023-08-02T20:33:16.128Z,3.60
2023-08-02T20:38:19.145Z,4.10
2023-08-02T20:43:22.017Z,3.40
2023-08-02T20:48:24.924Z,3.90
2023-08-02T20:53:27.857Z,3.60
2023-08-02T20:58:31.274Z,3.50
2023-08-02T21:03:37.858Z,3.60
2023-08-02T21:08:43.739Z,3.60
2023-08-02T21:13:46.697Z,3.90
2023-08-02T21:18:55.406Z,3.70
2023-08-02T21:23:59.526Z,3.60
2023-08-02T21:29:04.867Z,3.60
2023-08-02T21:34:17.121Z,3.90
2023-08-02T21:39:20.928Z,3.80
2023-08-02T21:44:30.405Z,4.00
2023-08-02T21:49:33.687Z,4.20
2023-08-02T21:54:36.932Z,4.20
2023-08-02T21:59:39.845Z,3.70
2023-08-02T22:04:45.245Z,3.90
2023-08-02T22:09:54.846Z,3.80
2023-08-02T22:15:03.514Z,3.40
2023-08-02T22:20:07.566Z,3.90
2023-08-02T22:25:10.420Z,4.70
2023-08-02T22:30:13.777Z,4.30
2023-08-02T22:35:16.640Z,3.90
2023-08-02T22:40:19.629Z,3.70
2023-08-02T22:45:23.683Z,3.90
2023-08-02T22:55:32.764Z,3.90
2023-08-02T23:00:36.345Z,4.20
2023-08-02T23:05:44.487Z,4.10
2023-08-02T23:10:47.524Z,4.10
2023-08-02T23:15:50.408Z,3.90
2023-08-02T23:20:54.231Z,3.90
2023-08-02T23:26:01.748Z,3.60
2023-08-02T23:31:07.489Z,3.50
2023-08-02T23:36:10.327Z,3.20
2023-08-02T23:41:13.297Z,3.40
2023-08-02T23:46:18.369Z,3.20
2023-08-02T23:51:21.735Z,3.50
2023-08-02T23:56:24.602Z,3.20
